createdAt,value
2019-03-18T00:00:23.785Z,25.77
2019-03-18T00:00:49.771Z,25.77
2019-03-18T00:01:15.789Z,25.76
2019-03-18T00:01:41.771Z,25.75
2019-03-18T00:02:07.786Z,25.74
2019-03-18T00:02:33.779Z,25.75
2019-03-18T00:02:59.772Z,25.75
2019-03-18T00:03:25.860Z,25.75
2019-03-18T00:03:51.790Z,25.75
2019-03-18T00:04:17.803Z,25.75
2019-03-18T00:04:43.788Z,25.74
2019-03-18T00:05:09.775Z,25.75
2019-03-18T00:05:35.792Z,25.75
2019-03-18T00:06:01.774Z,25.75
2019-03-18T00:06:28.006Z,25.75
2019-03-18T00:06:53.793Z,25.74
2019-03-18T00:07:19.844Z,25.73
2019-03-18T00:07:45.799Z,25.73
2019-03-18T00:08:11.782Z,25.73
2019-03-18T00:08:37.802Z,25.74
2019-03-18T00:09:03.781Z,25.73
2019-03-18T00:09:29.782Z,25.73
2019-03-18T00:09:55.780Z,25.73
2019-03-18T00:10:21.789Z,25.72
2019-03-18T00:10:47.860Z,25.72
2019-03-18T00:11:13.796Z,25.73
2019-03-18T00:11:39.782Z,25.73
2019-03-18T00:12:05.802Z,25.73
2019-03-18T00:12:32.091Z,25.76
2019-03-18T00:12:57.789Z,25.75
2019-03-18T00:13:23.800Z,25.77
2019-03-18T00:13:49.803Z,25.78
2019-03-18T00:14:15.806Z,25.79
2019-03-18T00:14:41.804Z,25.79
2019-03-18T00:15:07.803Z,25.8
2019-03-18T00:15:33.789Z,25.81
2019-03-18T00:15:59.791Z,25.81
2019-03-18T00:16:25.792Z,25.79
2019-03-18T00:16:51.790Z,25.79
2019-03-18T00:17:17.813Z,25.77
2019-03-18T00:17:43.811Z,25.76
2019-03-18T00:18:09.797Z,25.76
2019-03-18T00:18:35.811Z,25.76
2019-03-18T00:19:01.797Z,25.76
2019-03-18T00:19:27.812Z,25.78
2019-03-18T00:19:53.797Z,25.79
2019-03-18T00:20:19.793Z,25.79
2019-03-18T00:20:45.809Z,25.83
2019-03-18T00:21:11.877Z,25.84
2019-03-18T00:21:37.811Z,25.86
2019-03-18T00:22:03.810Z,25.85
2019-03-18T00:22:29.799Z,25.85
2019-03-18T00:22:55.811Z,25.86
2019-03-18T00:23:21.796Z,25.86
2019-03-18T00:23:47.813Z,25.88
2019-03-18T00:24:13.798Z,25.89
2019-03-18T00:24:39.796Z,25.9
2019-03-18T00:25:06.208Z,25.89
2019-03-18T00:25:31.815Z,25.9
2019-03-18T00:25:57.815Z,25.9
2019-03-18T00:26:23.814Z,25.9
2019-03-18T00:26:49.840Z,25.88
2019-03-18T00:27:15.811Z,25.9
2019-03-18T00:27:41.807Z,25.89
2019-03-18T00:28:07.810Z,25.88
2019-03-18T00:28:33.825Z,25.87
2019-03-18T00:28:59.814Z,25.87
2019-03-18T00:29:25.826Z,25.87
2019-03-18T00:29:51.814Z,25.86
2019-03-18T00:30:17.827Z,25.86
2019-03-18T00:30:43.811Z,25.86
2019-03-18T00:31:09.811Z,25.88
2019-03-18T00:31:35.826Z,25.88
2019-03-18T00:32:01.893Z,25.89
2019-03-18T00:32:27.829Z,25.89
2019-03-18T00:32:53.831Z,25.89
2019-03-18T00:33:20.067Z,25.89
2019-03-18T00:33:45.833Z,25.89
2019-03-18T00:34:11.810Z,25.88
2019-03-18T00:34:37.816Z,25.88
2019-03-18T00:35:03.833Z,25.89
2019-03-18T00:35:29.891Z,25.88
2019-03-18T00:35:55.838Z,25.89
2019-03-18T00:36:21.822Z,25.89
2019-03-18T00:36:47.839Z,25.9
2019-03-18T00:37:13.821Z,25.93
2019-03-18T00:37:39.825Z,25.91
2019-03-18T00:38:05.838Z,25.92
2019-03-18T00:38:31.840Z,25.95
2019-03-18T00:38:57.839Z,25.94
2019-03-18T00:39:23.838Z,25.94
2019-03-18T00:39:49.824Z,25.93
2019-03-18T00:40:15.840Z,25.93
2019-03-18T00:40:41.828Z,25.94
2019-03-18T00:41:07.829Z,25.94
2019-03-18T00:41:33.837Z,25.95
2019-03-18T00:41:59.896Z,25.95
2019-03-18T00:42:25.846Z,25.96
2019-03-18T00:42:51.833Z,25.96
2019-03-18T00:43:17.845Z,25.98
2019-03-18T00:43:43.829Z,25.96
2019-03-18T00:44:09.828Z,25.96
2019-03-18T00:44:35.845Z,25.98
2019-03-18T00:45:01.930Z,25.99
2019-03-18T00:45:27.845Z,25.99
2019-03-18T00:45:53.852Z,25.98
2019-03-18T00:46:19.835Z,25.99
2019-03-18T00:46:45.851Z,25.99
2019-03-18T00:47:11.837Z,25.98
2019-03-18T00:47:37.851Z,25.99
2019-03-18T00:48:03.835Z,25.99
2019-03-18T00:48:29.844Z,25.98
2019-03-18T00:48:55.916Z,25.98
2019-03-18T00:49:21.852Z,26.02
2019-03-18T00:49:47.852Z,26.02
2019-03-18T00:50:13.839Z,26.01
2019-03-18T00:50:39.841Z,26
2019-03-18T00:51:05.843Z,26.01
2019-03-18T00:51:31.849Z,26.01
2019-03-18T00:51:57.858Z,26.01
2019-03-18T00:52:23.858Z,26.03
2019-03-18T00:52:49.845Z,26.04
2019-03-18T00:53:15.863Z,26.02
2019-03-18T00:53:41.844Z,26
2019-03-18T00:54:07.859Z,25.98
2019-03-18T00:54:33.844Z,25.97
2019-03-18T00:54:59.853Z,25.98
2019-03-18T00:55:25.929Z,25.98
2019-03-18T00:55:51.869Z,25.99
2019-03-18T00:56:17.864Z,25.99
2019-03-18T00:56:43.848Z,25.99
2019-03-18T00:57:09.849Z,25.99
2019-03-18T00:57:35.852Z,25.96
2019-03-18T00:58:01.856Z,25.98
2019-03-18T00:58:27.932Z,25.95
2019-03-18T00:58:53.868Z,25.92
2019-03-18T00:59:19.850Z,25.91
2019-03-18T00:59:45.876Z,25.94
2019-03-18T01:00:11.854Z,25.96
2019-03-18T01:00:37.868Z,25.96
2019-03-18T01:01:03.859Z,25.97
2019-03-18T01:01:29.854Z,25.96
2019-03-18T01:01:55.932Z,25.95
2019-03-18T01:02:21.871Z,25.93
2019-03-18T01:02:47.873Z,25.92
2019-03-18T01:03:13.865Z,25.89
2019-03-18T01:03:39.859Z,25.89
2019-03-18T01:04:05.863Z,25.87
2019-03-18T01:04:31.999Z,25.87
2019-03-18T01:04:58.005Z,25.87
2019-03-18T01:05:23.881Z,25.87
2019-03-18T01:05:49.931Z,25.87
2019-03-18T01:06:15.880Z,25.86
2019-03-18T01:06:41.861Z,25.86
2019-03-18T01:07:07.879Z,25.83
2019-03-18T01:07:33.864Z,25.8
2019-03-18T01:07:59.866Z,25.79
2019-03-18T01:08:25.886Z,25.79
2019-03-18T01:08:51.879Z,25.77
2019-03-18T01:09:17.948Z,25.69
2019-03-18T01:09:43.893Z,25.69
2019-03-18T01:10:09.871Z,25.69
2019-03-18T01:10:35.913Z,25.72
2019-03-18T01:11:01.870Z,25.71
2019-03-18T01:11:27.883Z,25.7
2019-03-18T01:11:53.949Z,25.7
2019-03-18T01:12:19.870Z,25.7
2019-03-18T01:12:45.886Z,25.72
2019-03-18T01:13:11.873Z,25.71
2019-03-18T01:13:37.885Z,25.69
2019-03-18T01:14:03.875Z,25.69
2019-03-18T01:14:29.881Z,25.68
2019-03-18T01:14:55.897Z,25.69
2019-03-18T01:15:21.892Z,25.68
2019-03-18T01:15:47.893Z,25.66
2019-03-18T01:16:13.897Z,25.66
2019-03-18T01:16:39.878Z,25.66
2019-03-18T01:17:05.879Z,25.66
2019-03-18T01:17:31.879Z,25.67
2019-03-18T01:17:57.886Z,25.66
2019-03-18T01:18:23.887Z,25.63
2019-03-18T01:18:49.945Z,25.61
2019-03-18T01:19:15.903Z,25.61
2019-03-18T01:19:41.886Z,25.59
2019-03-18T01:20:07.924Z,25.59
2019-03-18T01:20:33.890Z,25.59
2019-03-18T01:20:59.898Z,25.59
2019-03-18T01:21:25.888Z,25.57
2019-03-18T01:21:51.911Z,25.56
2019-03-18T01:22:17.969Z,25.54
2019-03-18T01:22:43.969Z,25.54
2019-03-18T01:23:09.886Z,25.19
2019-03-18T01:23:35.904Z,24.87
2019-03-18T01:24:01.897Z,24.46
2019-03-18T01:24:27.902Z,24.1
2019-03-18T01:24:53.890Z,23.67
2019-03-18T01:25:19.892Z,23.35
2019-03-18T01:25:45.968Z,23
2019-03-18T01:26:11.912Z,22.36
2019-03-18T01:26:38.250Z,22.14
2019-03-18T01:27:03.892Z,21.94
2019-03-18T01:27:29.894Z,21.94
2019-03-18T01:27:55.920Z,21.84
2019-03-18T01:28:21.901Z,21.66
2019-03-18T01:28:47.912Z,21.46
2019-03-18T01:29:13.983Z,21.01
2019-03-18T01:29:39.894Z,20.96
2019-03-18T01:30:05.915Z,21.02
2019-03-18T01:30:31.905Z,20.9
2019-03-18T01:30:57.914Z,20.84
2019-03-18T01:31:23.901Z,20.8
2019-03-18T01:31:49.894Z,20.85
2019-03-18T01:32:15.907Z,20.79
2019-03-18T01:32:41.979Z,20.69
2019-03-18T01:33:07.918Z,20.57
2019-03-18T01:33:33.951Z,20.6
2019-03-18T01:33:59.900Z,20.7
2019-03-18T01:34:25.916Z,20.86
2019-03-18T01:34:51.904Z,21.08
2019-03-18T01:35:17.923Z,21.28
2019-03-18T01:35:43.919Z,21.48
2019-03-18T01:36:09.972Z,21.61
2019-03-18T01:36:35.919Z,21.8
2019-03-18T01:37:02.171Z,21.92
2019-03-18T01:37:27.929Z,22
2019-03-18T01:37:53.906Z,22.09
2019-03-18T01:38:19.908Z,22.18
2019-03-18T01:38:45.908Z,22.27
2019-03-18T01:39:11.926Z,22.34
2019-03-18T01:39:37.988Z,22.4
2019-03-18T01:40:03.986Z,22.44
2019-03-18T01:40:29.911Z,22.52
2019-03-18T01:40:55.927Z,22.57
2019-03-18T01:41:21.910Z,22.62
2019-03-18T01:41:47.931Z,22.69
2019-03-18T01:42:13.912Z,22.75
2019-03-18T01:42:39.913Z,22.81
2019-03-18T01:43:05.918Z,22.85
2019-03-18T01:43:31.938Z,22.89
2019-03-18T01:43:57.924Z,22.94
2019-03-18T01:44:23.934Z,22.95
2019-03-18T01:44:49.921Z,22.97
2019-03-18T01:45:15.931Z,22.98
2019-03-18T01:45:41.916Z,23
2019-03-18T01:46:07.931Z,23.03
2019-03-18T01:46:33.929Z,23.06
2019-03-18T01:46:59.985Z,23.1
2019-03-18T01:47:25.935Z,23.11
2019-03-18T01:47:51.922Z,23.11
2019-03-18T01:48:17.936Z,23.12
2019-03-18T01:48:43.920Z,23.12
2019-03-18T01:49:09.942Z,23.13
2019-03-18T01:49:35.929Z,23.15
2019-03-18T01:50:01.938Z,23.15
2019-03-18T01:50:28.002Z,23.17
2019-03-18T01:50:54.007Z,23.17
2019-03-18T01:51:19.926Z,23.2
2019-03-18T01:51:45.942Z,23.21
2019-03-18T01:52:11.926Z,23.21
2019-03-18T01:52:37.944Z,23.23
2019-03-18T01:53:03.928Z,23.23
2019-03-18T01:53:29.930Z,23.23
2019-03-18T01:53:55.948Z,23.24
2019-03-18T01:54:21.949Z,23.25
2019-03-18T01:54:47.955Z,23.26
2019-03-18T01:55:13.945Z,23.25
2019-03-18T01:55:39.935Z,23.25
2019-03-18T01:56:05.937Z,23.26
2019-03-18T01:56:31.936Z,23.25
2019-03-18T01:56:57.941Z,23.25
2019-03-18T01:57:24.017Z,23.23
2019-03-18T01:57:49.936Z,23.22
2019-03-18T01:58:15.962Z,23.23
2019-03-18T01:58:41.935Z,23.22
2019-03-18T01:59:07.952Z,23.25
2019-03-18T01:59:33.933Z,23.23
2019-03-18T01:59:59.942Z,23.23
2019-03-18T02:00:25.968Z,23.23
2019-03-18T02:00:51.956Z,23.24
2019-03-18T02:01:18.017Z,23.25
2019-03-18T02:01:43.953Z,23.26
2019-03-18T02:02:09.947Z,23.26
2019-03-18T02:02:35.955Z,23.26
2019-03-18T02:03:01.943Z,23.26
2019-03-18T02:03:27.961Z,23.25
2019-03-18T02:03:53.958Z,23.25
2019-03-18T02:04:20.019Z,23.24
2019-03-18T02:04:46.000Z,23.25
2019-03-18T02:05:11.959Z,23.25
2019-03-18T02:05:37.967Z,23.23
2019-03-18T02:06:03.949Z,23.23
2019-03-18T02:06:29.947Z,23.22
2019-03-18T02:06:55.952Z,23.23
2019-03-18T02:07:21.951Z,23.21
2019-03-18T02:07:47.960Z,23.2
2019-03-18T02:08:13.960Z,23.21
2019-03-18T02:08:40.016Z,23.2
2019-03-18T02:09:05.963Z,23.2
2019-03-18T02:09:31.952Z,23.19
2019-03-18T02:09:57.969Z,23.2
2019-03-18T02:10:23.952Z,23.19
2019-03-18T02:10:49.952Z,23.19
2019-03-18T02:11:15.956Z,23.19
2019-03-18T02:11:41.979Z,23.18
2019-03-18T02:12:07.973Z,23.19
2019-03-18T02:12:33.972Z,23.18
2019-03-18T02:12:59.957Z,23.17
2019-03-18T02:13:25.971Z,23.17
2019-03-18T02:13:51.955Z,23.15
2019-03-18T02:14:17.959Z,23.14
2019-03-18T02:14:43.965Z,23.16
2019-03-18T02:15:10.030Z,23.14
2019-03-18T02:15:35.978Z,23.13
2019-03-18T02:16:01.980Z,23.12
2019-03-18T02:16:27.978Z,23.12
2019-03-18T02:16:53.965Z,23.11
2019-03-18T02:17:20.073Z,23.11
2019-03-18T02:17:45.967Z,23.12
2019-03-18T02:18:11.963Z,23.12
2019-03-18T02:18:37.970Z,23.12
2019-03-18T02:19:04.054Z,23.11
2019-03-18T02:19:29.967Z,23.08
2019-03-18T02:19:55.984Z,23.08
2019-03-18T02:20:21.967Z,23.06
2019-03-18T02:20:47.985Z,23.06
2019-03-18T02:21:13.970Z,23.05
2019-03-18T02:21:39.978Z,23.04
2019-03-18T02:22:05.985Z,23.03
2019-03-18T02:22:31.985Z,23.03
2019-03-18T02:22:57.984Z,23.03
2019-03-18T02:23:23.985Z,23.03
2019-03-18T02:23:49.977Z,23.03
2019-03-18T02:24:15.988Z,23.02
2019-03-18T02:24:41.978Z,23.01
2019-03-18T02:25:07.991Z,23.01
2019-03-18T02:25:33.972Z,23.01
2019-03-18T02:26:00.437Z,23
2019-03-18T02:26:26.053Z,22.99
2019-03-18T02:26:51.993Z,22.99
2019-03-18T02:27:17.996Z,22.98
2019-03-18T02:27:43.983Z,22.98
2019-03-18T02:28:09.979Z,22.97
2019-03-18T02:28:35.988Z,22.97
2019-03-18T02:29:02.056Z,22.95
2019-03-18T02:29:27.993Z,22.94
2019-03-18T02:29:53.996Z,22.93
2019-03-18T02:30:19.981Z,22.92
2019-03-18T02:30:45.998Z,22.92
2019-03-18T02:31:11.986Z,22.92
2019-03-18T02:31:37.983Z,22.91
2019-03-18T02:32:03.994Z,22.9
2019-03-18T02:32:30.048Z,22.9
2019-03-18T02:32:55.997Z,22.89
2019-03-18T02:33:22.003Z,22.88
2019-03-18T02:33:48.005Z,22.88
2019-03-18T02:34:13.992Z,22.88
2019-03-18T02:34:39.987Z,22.87
2019-03-18T02:35:05.986Z,22.86
2019-03-18T02:35:31.999Z,22.85
2019-03-18T02:35:58.009Z,22.84
2019-03-18T02:36:24.011Z,22.84
2019-03-18T02:36:49.992Z,22.84
2019-03-18T02:37:16.011Z,22.83
2019-03-18T02:37:41.990Z,22.82
2019-03-18T02:38:08.010Z,22.83
2019-03-18T02:38:33.994Z,22.82
2019-03-18T02:38:59.994Z,22.81
2019-03-18T02:39:25.993Z,22.8
2019-03-18T02:39:51.995Z,22.79
2019-03-18T02:40:18.014Z,22.78
2019-03-18T02:40:44.018Z,22.77
2019-03-18T02:41:10.032Z,22.76
2019-03-18T02:41:36.017Z,22.74
2019-03-18T02:42:01.995Z,22.74
2019-03-18T02:42:28.014Z,22.72
2019-03-18T02:42:53.995Z,22.73
2019-03-18T02:43:20.002Z,22.71
2019-03-18T02:43:46.012Z,22.71
2019-03-18T02:44:12.077Z,22.69
2019-03-18T02:44:38.031Z,22.68
2019-03-18T02:45:04.019Z,22.67
2019-03-18T02:45:30.014Z,22.67
2019-03-18T02:45:56.016Z,22.66
2019-03-18T02:46:22.011Z,22.66
2019-03-18T02:46:48.019Z,22.65
2019-03-18T02:47:14.008Z,22.64
2019-03-18T02:47:40.016Z,22.63
2019-03-18T02:48:06.123Z,22.62
2019-03-18T02:48:32.023Z,22.62
2019-03-18T02:48:58.022Z,22.61
2019-03-18T02:49:24.031Z,22.6
2019-03-18T02:49:50.016Z,22.59
2019-03-18T02:50:16.015Z,22.58
2019-03-18T02:50:42.012Z,22.57
2019-03-18T02:51:08.033Z,22.58
2019-03-18T02:51:34.035Z,22.56
2019-03-18T02:52:00.013Z,22.56
2019-03-18T02:52:26.028Z,22.55
2019-03-18T02:52:52.016Z,22.54
2019-03-18T02:53:18.027Z,22.53
2019-03-18T02:53:44.016Z,22.52
2019-03-18T02:54:10.017Z,22.51
2019-03-18T02:54:36.033Z,22.5
2019-03-18T02:55:02.022Z,22.5
2019-03-18T02:55:28.034Z,22.49
2019-03-18T02:55:54.023Z,22.47
2019-03-18T02:56:20.016Z,22.46
2019-03-18T02:56:46.027Z,22.46
2019-03-18T02:57:12.097Z,22.45
2019-03-18T02:57:38.038Z,22.43
2019-03-18T02:58:04.033Z,22.43
2019-03-18T02:58:30.021Z,22.43
2019-03-18T02:58:56.042Z,22.43
2019-03-18T02:59:22.023Z,22.42
2019-03-18T02:59:48.042Z,22.41
2019-03-18T03:00:14.026Z,22.41
2019-03-18T03:00:40.022Z,22.4
2019-03-18T03:01:06.106Z,22.39
2019-03-18T03:01:32.039Z,22.38
2019-03-18T03:01:58.044Z,22.37
2019-03-18T03:02:24.044Z,22.36
2019-03-18T03:02:50.026Z,22.37
2019-03-18T03:03:16.029Z,22.36
2019-03-18T03:03:42.028Z,22.36
2019-03-18T03:04:08.043Z,22.35
2019-03-18T03:04:34.046Z,22.33
2019-03-18T03:05:00.094Z,22.33
2019-03-18T03:05:26.046Z,22.31
2019-03-18T03:05:52.028Z,22.31
2019-03-18T03:06:18.042Z,22.31
2019-03-18T03:06:44.031Z,22.3
2019-03-18T03:07:10.033Z,22.29
2019-03-18T03:07:36.034Z,22.29
2019-03-18T03:08:02.035Z,22.27
2019-03-18T03:08:28.052Z,22.27
2019-03-18T03:08:54.052Z,22.25
2019-03-18T03:09:20.041Z,22.25
2019-03-18T03:09:46.053Z,22.24
2019-03-18T03:10:12.039Z,22.23
2019-03-18T03:10:38.055Z,22.23
2019-03-18T03:11:04.037Z,22.22
2019-03-18T03:11:30.042Z,22.21
2019-03-18T03:11:56.053Z,22.21
2019-03-18T03:12:22.106Z,22.2
2019-03-18T03:12:48.100Z,22.19
2019-03-18T03:13:14.095Z,22.19
2019-03-18T03:13:40.045Z,22.18
2019-03-18T03:14:06.040Z,22.17
2019-03-18T03:14:32.046Z,22.18
2019-03-18T03:14:58.117Z,22.18
2019-03-18T03:15:24.060Z,22.16
2019-03-18T03:15:50.093Z,22.15
2019-03-18T03:16:16.098Z,22.15
2019-03-18T03:16:42.045Z,22.14
2019-03-18T03:17:08.069Z,22.14
2019-03-18T03:17:34.048Z,22.13
2019-03-18T03:18:00.055Z,22.13
2019-03-18T03:18:26.062Z,22.12
2019-03-18T03:18:52.132Z,22.11
2019-03-18T03:19:18.066Z,22.09
2019-03-18T03:19:44.066Z,22.09
2019-03-18T03:20:10.051Z,22.08
2019-03-18T03:20:36.065Z,22.08
2019-03-18T03:21:02.051Z,22.06
2019-03-18T03:21:28.064Z,22.05
2019-03-18T03:21:54.063Z,22.04
2019-03-18T03:22:20.053Z,22.03
2019-03-18T03:22:46.077Z,22.02
2019-03-18T03:23:12.056Z,22.01
2019-03-18T03:23:38.072Z,22.01
2019-03-18T03:24:04.063Z,22
2019-03-18T03:24:30.061Z,22
2019-03-18T03:24:56.065Z,21.99
2019-03-18T03:25:22.077Z,21.99
2019-03-18T03:25:48.072Z,21.99
2019-03-18T03:26:14.075Z,21.98
2019-03-18T03:26:40.060Z,21.97
2019-03-18T03:27:06.114Z,21.96
2019-03-18T03:27:32.066Z,21.96
2019-03-18T03:27:58.082Z,21.95
2019-03-18T03:28:24.062Z,21.95
2019-03-18T03:28:50.137Z,21.94
2019-03-18T03:29:16.080Z,21.93
2019-03-18T03:29:42.084Z,21.93
2019-03-18T03:30:08.081Z,21.93
2019-03-18T03:30:34.079Z,21.92
2019-03-18T03:31:00.063Z,21.91
2019-03-18T03:31:26.083Z,21.9
2019-03-18T03:31:52.069Z,21.88
2019-03-18T03:32:18.078Z,21.88
2019-03-18T03:32:44.146Z,21.88
2019-03-18T03:33:10.069Z,21.87
2019-03-18T03:33:36.086Z,21.86
2019-03-18T03:34:02.073Z,21.84
2019-03-18T03:34:28.085Z,21.83
2019-03-18T03:34:54.070Z,21.83
2019-03-18T03:35:20.072Z,21.82
2019-03-18T03:35:46.088Z,21.81
2019-03-18T03:36:12.073Z,21.81
2019-03-18T03:36:38.087Z,21.8
2019-03-18T03:37:04.075Z,21.79
2019-03-18T03:37:30.077Z,21.78
2019-03-18T03:37:56.076Z,21.77
2019-03-18T03:38:22.091Z,21.77
2019-03-18T03:38:48.157Z,21.75
2019-03-18T03:39:14.094Z,21.75
2019-03-18T03:39:40.091Z,21.74
2019-03-18T03:40:06.217Z,21.73
2019-03-18T03:40:32.186Z,21.73
2019-03-18T03:40:58.095Z,21.73
2019-03-18T03:41:24.081Z,21.72
2019-03-18T03:41:50.084Z,21.71
2019-03-18T03:42:16.101Z,21.71
2019-03-18T03:42:42.099Z,21.7
2019-03-18T03:43:08.101Z,21.69
2019-03-18T03:43:34.089Z,21.68
2019-03-18T03:44:00.084Z,21.67
2019-03-18T03:44:26.084Z,21.67
2019-03-18T03:44:52.100Z,21.66
2019-03-18T03:45:18.102Z,21.65
2019-03-18T03:45:44.104Z,21.64
2019-03-18T03:46:10.085Z,21.64
2019-03-18T03:46:36.107Z,21.62
2019-03-18T03:47:02.093Z,21.62
2019-03-18T03:47:28.106Z,21.61
2019-03-18T03:47:54.094Z,21.6
2019-03-18T03:48:20.097Z,21.6
2019-03-18T03:48:46.110Z,21.59
2019-03-18T03:49:12.156Z,21.59
2019-03-18T03:49:38.106Z,21.58
2019-03-18T03:50:04.109Z,21.57
2019-03-18T03:50:30.093Z,21.57
2019-03-18T03:50:56.095Z,21.56
2019-03-18T03:51:22.097Z,21.55
2019-03-18T03:51:48.107Z,21.54
2019-03-18T03:52:14.106Z,21.54
2019-03-18T03:52:40.165Z,21.53
2019-03-18T03:53:06.116Z,21.52
2019-03-18T03:53:32.100Z,21.51
2019-03-18T03:53:58.111Z,21.5
2019-03-18T03:54:24.102Z,21.5
2019-03-18T03:54:50.098Z,21.5
2019-03-18T03:55:16.101Z,21.49
2019-03-18T03:55:42.118Z,21.49
2019-03-18T03:56:08.123Z,21.48
2019-03-18T03:56:34.118Z,21.47
2019-03-18T03:57:00.103Z,21.46
2019-03-18T03:57:26.123Z,21.45
2019-03-18T03:57:52.109Z,21.45
2019-03-18T03:58:18.103Z,21.44
2019-03-18T03:58:44.125Z,21.44
2019-03-18T03:59:10.110Z,21.43
2019-03-18T03:59:36.124Z,21.43
2019-03-18T04:00:02.108Z,21.42
2019-03-18T04:00:28.133Z,21.4
2019-03-18T04:00:54.114Z,21.39
2019-03-18T04:01:20.111Z,21.39
2019-03-18T04:01:46.120Z,21.38
2019-03-18T04:02:12.130Z,21.37
2019-03-18T04:02:38.187Z,21.36
2019-03-18T04:03:04.126Z,21.35
2019-03-18T04:03:30.111Z,21.35
2019-03-18T04:03:56.129Z,21.35
2019-03-18T04:04:22.114Z,21.34
2019-03-18T04:04:48.114Z,21.33
2019-03-18T04:05:14.504Z,21.33
2019-03-18T04:05:40.196Z,21.31
2019-03-18T04:06:06.132Z,21.3
2019-03-18T04:06:32.118Z,21.3
2019-03-18T04:06:58.135Z,21.3
2019-03-18T04:07:24.119Z,21.29
2019-03-18T04:07:50.120Z,21.28
2019-03-18T04:08:16.128Z,21.27
2019-03-18T04:08:42.199Z,21.26
2019-03-18T04:09:08.135Z,21.25
2019-03-18T04:09:34.135Z,21.24
2019-03-18T04:10:00.123Z,21.24
2019-03-18T04:10:26.125Z,21.24
2019-03-18T04:10:52.150Z,21.23
2019-03-18T04:11:18.142Z,21.22
2019-03-18T04:11:44.508Z,21.22
2019-03-18T04:12:10.124Z,21.22
2019-03-18T04:12:36.139Z,21.21
2019-03-18T04:13:02.127Z,21.21
2019-03-18T04:13:28.147Z,21.2
2019-03-18T04:13:54.127Z,21.19
2019-03-18T04:14:20.127Z,21.18
2019-03-18T04:14:46.149Z,21.18
2019-03-18T04:15:12.155Z,21.17
2019-03-18T04:15:38.145Z,21.17
2019-03-18T04:16:04.203Z,21.15
2019-03-18T04:16:30.136Z,21.15
2019-03-18T04:16:56.152Z,21.14
2019-03-18T04:17:22.135Z,21.13
2019-03-18T04:17:48.149Z,21.13
2019-03-18T04:18:14.131Z,21.12
2019-03-18T04:18:40.136Z,21.12
2019-03-18T04:19:06.147Z,21.11
2019-03-18T04:19:32.156Z,21.1
2019-03-18T04:19:58.151Z,21.1
2019-03-18T04:20:24.139Z,21.09
2019-03-18T04:20:50.137Z,21.09
2019-03-18T04:21:16.136Z,21.08
2019-03-18T04:21:42.152Z,21.07
2019-03-18T04:22:08.153Z,21.06
2019-03-18T04:22:34.152Z,21.05
2019-03-18T04:23:00.138Z,21.04
2019-03-18T04:23:26.155Z,21.04
2019-03-18T04:23:52.155Z,21.03
2019-03-18T04:24:18.160Z,21.02
2019-03-18T04:24:44.143Z,21.01
2019-03-18T04:25:10.151Z,21.01
2019-03-18T04:25:36.163Z,21
2019-03-18T04:26:02.220Z,20.99
2019-03-18T04:26:28.164Z,20.97
2019-03-18T04:26:54.163Z,20.96
2019-03-18T04:27:20.146Z,20.94
2019-03-18T04:27:46.161Z,20.94
2019-03-18T04:28:12.148Z,20.93
2019-03-18T04:28:38.158Z,20.93
2019-03-18T04:29:04.230Z,20.93
2019-03-18T04:29:30.157Z,20.91
2019-03-18T04:29:56.164Z,20.9
2019-03-18T04:30:22.150Z,20.89
2019-03-18T04:30:48.169Z,20.89
2019-03-18T04:31:14.155Z,20.88
2019-03-18T04:31:40.156Z,20.88
2019-03-18T04:32:06.154Z,20.86
2019-03-18T04:32:32.168Z,20.85
2019-03-18T04:32:58.254Z,20.84
2019-03-18T04:33:24.167Z,20.83
2019-03-18T04:33:50.155Z,20.82
2019-03-18T04:34:16.173Z,20.8
2019-03-18T04:34:42.156Z,20.8
2019-03-18T04:35:08.168Z,20.78
2019-03-18T04:35:34.235Z,20.77
2019-03-18T04:36:00.171Z,20.75
2019-03-18T04:36:26.177Z,20.75
2019-03-18T04:36:52.158Z,20.74
2019-03-18T04:37:18.175Z,20.73
2019-03-18T04:37:44.162Z,20.72
2019-03-18T04:38:10.167Z,20.72
2019-03-18T04:38:36.178Z,20.71
2019-03-18T04:39:02.186Z,20.7
2019-03-18T04:39:28.181Z,20.71
2019-03-18T04:39:54.178Z,20.69
2019-03-18T04:40:20.168Z,20.69
2019-03-18T04:40:46.180Z,20.69
2019-03-18T04:41:12.162Z,20.68
2019-03-18T04:41:38.183Z,20.67
2019-03-18T04:42:04.166Z,20.67
2019-03-18T04:42:30.167Z,20.66
2019-03-18T04:42:56.184Z,20.67
2019-03-18T04:43:22.187Z,20.67
2019-03-18T04:43:48.186Z,20.67
2019-03-18T04:44:14.168Z,20.67
2019-03-18T04:44:40.170Z,20.66
2019-03-18T04:45:06.171Z,20.66
2019-03-18T04:45:32.194Z,20.66
2019-03-18T04:45:58.249Z,20.65
2019-03-18T04:46:24.189Z,20.65
2019-03-18T04:46:50.175Z,20.64
2019-03-18T04:47:16.193Z,20.64
2019-03-18T04:47:42.175Z,20.64
2019-03-18T04:48:08.175Z,20.63
2019-03-18T04:48:34.195Z,20.63
2019-03-18T04:49:00.444Z,20.63
2019-03-18T04:49:26.190Z,20.63
2019-03-18T04:49:52.179Z,20.62
2019-03-18T04:50:18.192Z,20.62
2019-03-18T04:50:44.177Z,20.61
2019-03-18T04:51:10.181Z,20.61
2019-03-18T04:51:36.183Z,20.61
2019-03-18T04:52:02.183Z,20.61
2019-03-18T04:52:28.197Z,20.61
2019-03-18T04:52:54.257Z,20.61
2019-03-18T04:53:20.488Z,20.61
2019-03-18T04:53:46.268Z,20.6
2019-03-18T04:54:12.183Z,20.6
2019-03-18T04:54:38.204Z,20.6
2019-03-18T04:55:04.506Z,20.6
2019-03-18T04:55:30.184Z,20.6
2019-03-18T04:55:56.204Z,20.6
2019-03-18T04:56:22.201Z,20.6
2019-03-18T04:56:48.204Z,20.6
2019-03-18T04:57:14.188Z,20.6
2019-03-18T04:57:40.189Z,20.61
2019-03-18T04:58:06.192Z,20.6
2019-03-18T04:58:32.190Z,20.59
2019-03-18T04:58:58.206Z,20.58
2019-03-18T04:59:24.213Z,20.57
2019-03-18T04:59:50.198Z,20.57
2019-03-18T05:00:16.210Z,20.56
2019-03-18T05:00:42.375Z,20.55
2019-03-18T05:01:08.208Z,20.55
2019-03-18T05:01:34.196Z,20.53
2019-03-18T05:02:00.194Z,20.53
2019-03-18T05:02:26.207Z,20.53
2019-03-18T05:02:52.208Z,20.53
2019-03-18T05:03:18.385Z,20.53
2019-03-18T05:03:44.210Z,20.52
2019-03-18T05:04:10.200Z,20.51
2019-03-18T05:04:36.215Z,20.51
2019-03-18T05:05:02.199Z,20.51
2019-03-18T05:05:28.202Z,20.5
2019-03-18T05:05:54.216Z,20.49
2019-03-18T05:06:20.268Z,20.49
2019-03-18T05:06:46.214Z,20.5
2019-03-18T05:07:12.222Z,20.51
2019-03-18T05:07:38.219Z,20.5
2019-03-18T05:08:04.202Z,20.49
2019-03-18T05:08:30.201Z,20.48
2019-03-18T05:08:56.208Z,20.48
2019-03-18T05:09:22.203Z,20.48
2019-03-18T05:09:48.202Z,20.48
2019-03-18T05:10:14.213Z,20.49
2019-03-18T05:10:40.275Z,20.48
2019-03-18T05:11:06.226Z,20.48
2019-03-18T05:11:32.247Z,20.47
2019-03-18T05:11:58.222Z,20.47
2019-03-18T05:12:24.212Z,20.47
2019-03-18T05:12:50.210Z,20.47
2019-03-18T05:13:16.222Z,20.47
2019-03-18T05:13:42.290Z,20.46
2019-03-18T05:14:08.235Z,20.46
2019-03-18T05:14:34.225Z,20.46
2019-03-18T05:15:00.215Z,20.46
2019-03-18T05:15:26.212Z,20.46
2019-03-18T05:15:52.224Z,20.46
2019-03-18T05:16:18.223Z,20.45
2019-03-18T05:16:44.233Z,20.44
2019-03-18T05:17:10.219Z,20.44
2019-03-18T05:17:36.233Z,20.44
2019-03-18T05:18:02.544Z,20.44
2019-03-18T05:18:28.239Z,20.43
2019-03-18T05:18:54.218Z,20.43
2019-03-18T05:19:20.219Z,20.43
2019-03-18T05:19:46.230Z,20.43
2019-03-18T05:20:12.299Z,20.43
2019-03-18T05:20:38.235Z,20.43
2019-03-18T05:21:04.238Z,20.43
2019-03-18T05:21:30.221Z,20.43
2019-03-18T05:21:56.226Z,20.42
2019-03-18T05:22:22.228Z,20.42
2019-03-18T05:22:48.224Z,20.42
2019-03-18T05:23:14.241Z,20.42
2019-03-18T05:23:40.227Z,20.41
2019-03-18T05:24:06.239Z,20.41
2019-03-18T05:24:32.222Z,20.41
2019-03-18T05:24:58.248Z,20.4
2019-03-18T05:25:24.227Z,20.4
2019-03-18T05:25:50.228Z,20.39
2019-03-18T05:26:16.229Z,20.39
2019-03-18T05:26:42.246Z,20.38
2019-03-18T05:27:08.248Z,20.39
2019-03-18T05:27:34.249Z,20.38
2019-03-18T05:28:00.236Z,20.38
2019-03-18T05:28:26.230Z,20.37
2019-03-18T05:28:52.230Z,20.36
2019-03-18T05:29:18.239Z,20.36
2019-03-18T05:29:44.253Z,20.35
2019-03-18T05:30:10.239Z,20.35
2019-03-18T05:30:36.253Z,20.35
2019-03-18T05:31:02.238Z,20.34
2019-03-18T05:31:28.254Z,20.34
2019-03-18T05:31:54.238Z,20.34
2019-03-18T05:32:20.247Z,20.34
2019-03-18T05:32:46.255Z,20.33
2019-03-18T05:33:12.254Z,20.32
2019-03-18T05:33:38.316Z,20.32
2019-03-18T05:34:04.319Z,20.31
2019-03-18T05:34:30.240Z,20.31
2019-03-18T05:34:56.255Z,20.31
2019-03-18T05:35:22.242Z,20.31
2019-03-18T05:35:48.263Z,20.3
2019-03-18T05:36:14.246Z,20.3